Terminal Aerodrome Forecast
Issued by NWS

Home | Current Version | Previous Version | Text Only | Print | Product List | Glossary On
Versions: 1 2 3 4 5 6 7 8 9 10 11 12 13 14 15 16 17 18 19 20 21 22 23 24 25 26
000
FTUS42 KJAX 012300
TAFVQQ
TAF
KVQQ 012329Z 0200/0224 13007KT P6SM FEW040 SCT250
     FM020300 VRB02KT P6SM SKC
      TEMPO 0208/0211 4SM BR
     FM021700 12007KT P6SM SCT035 SCT250
     FM021900 11008KT P6SM VCTS SCT035CB BKN250
     FM022300 13008KT P6SM FEW040 SCT250=

USA.gov is the U.S. government's official web portal to all federal, state and local government web resources and services.